sensor_id;sensor_type;location;lat;lon;timestamp;pressure;altitude;pressure_sealevel;temperature;humidity
53116;BME280;39010;48.088;7.954;2022-07-19T00:02:14;98938.81;;;22.49;44.14
53116;BME280;39010;48.088;7.954;2022-07-19T00:04:40;98939.38;;;22.51;44.00
53116;BME280;39010;48.088;7.954;2022-07-19T00:07:07;98940.88;;;22.59;43.76
53116;BME280;39010;48.088;7.954;2022-07-19T00:09:33;98936.06;;;22.49;43.69
53116;BME280;39010;48.088;7.954;2022-07-19T00:12:00;98938.00;;;22.48;43.44
53116;BME280;39010;48.088;7.954;2022-07-19T00:14:26;98938.00;;;22.48;43.81
53116;BME280;39010;48.088;7.954;2022-07-19T00:16:53;98932.88;;;22.57;43.12
53116;BME280;39010;48.088;7.954;2022-07-19T00:19:20;98932.53;;;22.48;43.80
53116;BME280;39010;48.088;7.954;2022-07-19T00:21:46;98927.38;;;22.35;44.42
53116;BME280;39010;48.088;7.954;2022-07-19T00:24:12;98931.50;;;22.37;43.58
53116;BME280;39010;48.088;7.954;2022-07-19T00:26:39;98925.53;;;22.41;43.33
53116;BME280;39010;48.088;7.954;2022-07-19T00:29:06;98921.16;;;22.40;43.33
53116;BME280;39010;48.088;7.954;2022-07-19T00:31:32;98919.25;;;22.40;43.34
53116;BME280;39010;48.088;7.954;2022-07-19T00:33:59;98920.34;;;22.39;43.42
53116;BME280;39010;48.088;7.954;2022-07-19T00:36:26;98922.09;;;22.28;43.90
53116;BME280;39010;48.088;7.954;2022-07-19T00:38:52;98922.09;;;22.28;43.59
53116;BME280;39010;48.088;7.954;2022-07-19T00:41:19;98915.16;;;22.20;44.10
53116;BME280;39010;48.088;7.954;2022-07-19T00:43:46;98914.69;;;22.06;44.48
53116;BME280;39010;48.088;7.954;2022-07-19T00:46:17;98915.94;;;21.99;44.62
53116;BME280;39010;48.088;7.954;2022-07-19T00:48:44;98907.00;;;22.03;44.13
53116;BME280;39010;48.088;7.954;2022-07-19T00:51:12;98904.00;;;22.05;43.82
53116;BME280;39010;48.088;7.954;2022-07-19T00:53:41;98909.16;;;22.01;44.09
53116;BME280;39010;48.088;7.954;2022-07-19T00:56:09;98899.41;;;22.11;43.37
53116;BME280;39010;48.088;7.954;2022-07-19T00:58:38;98913.53;;;22.02;44.00
53116;BME280;39010;48.088;7.954;2022-07-19T01:01:06;98915.00;;;22.10;43.56
53116;BME280;39010;48.088;7.954;2022-07-19T01:03:38;98905.97;;;22.10;43.39
53116;BME280;39010;48.088;7.954;2022-07-19T01:06:07;98905.66;;;22.06;43.59
53116;BME280;39010;48.088;7.954;2022-07-19T01:08:36;98904.25;;;22.03;43.52
53116;BME280;39010;48.088;7.954;2022-07-19T01:11:04;98898.84;;;22.08;43.21
53116;BME280;39010;48.088;7.954;2022-07-19T01:13:32;98898.47;;;22.00;43.58
53116;BME280;39010;48.088;7.954;2022-07-19T01:15:59;98903.84;;;21.95;43.73
53116;BME280;39010;48.088;7.954;2022-07-19T01:18:26;98908.25;;;21.96;43.69
53116;BME280;39010;48.088;7.954;2022-07-19T01:20:53;98901.47;;;21.98;43.26
53116;BME280;39010;48.088;7.954;2022-07-19T01:23:19;98899.72;;;21.92;43.55
53116;BME280;39010;48.088;7.954;2022-07-19T01:25:46;98904.44;;;21.97;43.54
53116;BME280;39010;48.088;7.954;2022-07-19T01:28:12;98910.81;;;22.02;42.89
53116;BME280;39010;48.088;7.954;2022-07-19T01:30:39;98906.34;;;21.96;43.22
53116;BME280;39010;48.088;7.954;2022-07-19T01:33:05;98905.50;;;21.96;43.68
53116;BME280;39010;48.088;7.954;2022-07-19T01:35:32;98904.69;;;21.95;43.06
53116;BME280;39010;48.088;7.954;2022-07-19T01:37:58;98905.69;;;21.89;43.26
53116;BME280;39010;48.088;7.954;2022-07-19T01:40:26;98907.00;;;21.86;43.45
53116;BME280;39010;48.088;7.954;2022-07-19T01:42:53;98901.88;;;21.73;43.93
53116;BME280;39010;48.088;7.954;2022-07-19T01:45:20;98905.44;;;21.73;44.03
53116;BME280;39010;48.088;7.954;2022-07-19T01:47:47;98899.72;;;21.58;44.46
53116;BME280;39010;48.088;7.954;2022-07-19T01:50:15;98899.63;;;21.53;44.12
53116;BME280;39010;48.088;7.954;2022-07-19T01:52:42;98895.72;;;21.48;44.64
53116;BME280;39010;48.088;7.954;2022-07-19T01:55:16;98894.00;;;21.42;44.45
53116;BME280;39010;48.088;7.954;2022-07-19T01:57:42;98895.97;;;21.30;45.35
53116;BME280;39010;48.088;7.954;2022-07-19T02:00:10;98899.69;;;21.24;46.20
53116;BME280;39010;48.088;7.954;2022-07-19T02:02:41;98893.63;;;21.22;45.45
53116;BME280;39010;48.088;7.954;2022-07-19T02:05:07;98892.28;;;21.07;46.70
53116;BME280;39010;48.088;7.954;2022-07-19T02:07:37;98891.28;;;20.96;46.99
53116;BME280;39010;48.088;7.954;2022-07-19T02:22:40;98879.38;;;20.61;46.91
53116;BME280;39010;48.088;7.954;2022-07-19T02:25:07;98883.28;;;20.78;45.80
53116;BME280;39010;48.088;7.954;2022-07-19T02:27:34;98878.66;;;20.78;45.87
53116;BME280;39010;48.088;7.954;2022-07-19T02:30:01;98865.09;;;20.83;45.73
53116;BME280;39010;48.088;7.954;2022-07-19T02:32:27;98882.06;;;20.85;45.78
53116;BME280;39010;48.088;7.954;2022-07-19T02:34:54;98878.28;;;20.74;46.76
53116;BME280;39010;48.088;7.954;2022-07-19T02:37:20;98877.25;;;20.64;47.58
53116;BME280;39010;48.088;7.954;2022-07-19T02:39:47;98866.03;;;20.48;48.06
53116;BME280;39010;48.088;7.954;2022-07-19T02:42:13;98873.63;;;20.46;47.32
53116;BME280;39010;48.088;7.954;2022-07-19T02:44:40;98859.97;;;20.46;47.09
53116;BME280;39010;48.088;7.954;2022-07-19T02:47:06;98863.59;;;20.64;46.42
53116;BME280;39010;48.088;7.954;2022-07-19T02:49:33;98877.72;;;20.60;45.93
53116;BME280;39010;48.088;7.954;2022-07-19T02:51:59;98867.41;;;20.63;45.97
53116;BME280;39010;48.088;7.954;2022-07-19T02:54:26;98874.63;;;20.69;46.09
53116;BME280;39010;48.088;7.954;2022-07-19T02:56:52;98871.31;;;20.67;46.21
53116;BME280;39010;48.088;7.954;2022-07-19T02:59:19;98867.06;;;20.59;46.33
53116;BME280;39010;48.088;7.954;2022-07-19T03:01:45;98866.28;;;20.46;46.85
53116;BME280;39010;48.088;7.954;2022-07-19T03:04:12;98861.91;;;20.34;47.11
53116;BME280;39010;48.088;7.954;2022-07-19T03:06:38;98867.88;;;20.30;47.84
53116;BME280;39010;48.088;7.954;2022-07-19T03:09:05;98862.75;;;20.34;47.40
53116;BME280;39010;48.088;7.954;2022-07-19T03:11:31;98866.00;;;20.19;47.66
53116;BME280;39010;48.088;7.954;2022-07-19T03:13:58;98862.09;;;20.15;48.06
53116;BME280;39010;48.088;7.954;2022-07-19T03:16:24;98860.22;;;20.04;48.69
53116;BME280;39010;48.088;7.954;2022-07-19T03:18:51;98863.91;;;19.97;49.08
53116;BME280;39010;48.088;7.954;2022-07-19T03:21:17;98869.81;;;19.94;49.03
53116;BME280;39010;48.088;7.954;2022-07-19T03:23:44;98867.78;;;19.90;49.25
53116;BME280;39010;48.088;7.954;2022-07-19T03:26:11;98874.44;;;19.94;48.21
53116;BME280;39010;48.088;7.954;2022-07-19T03:28:37;98874.44;;;20.06;47.81
53116;BME280;39010;48.088;7.954;2022-07-19T03:31:04;98871.47;;;19.95;48.54
53116;BME280;39010;48.088;7.954;2022-07-19T03:33:30;98874.91;;;19.91;48.43
53116;BME280;39010;48.088;7.954;2022-07-19T03:35:57;98880.94;;;19.81;48.68
53116;BME280;39010;48.088;7.954;2022-07-19T03:38:23;98882.84;;;19.92;48.26
53116;BME280;39010;48.088;7.954;2022-07-19T03:40:50;98884.25;;;19.83;48.48
53116;BME280;39010;48.088;7.954;2022-07-19T03:43:17;98883.66;;;19.81;48.42
53116;BME280;39010;48.088;7.954;2022-07-19T03:45:44;98883.88;;;19.67;49.43
53116;BME280;39010;48.088;7.954;2022-07-19T03:48:11;98884.09;;;19.66;49.53
53116;BME280;39010;48.088;7.954;2022-07-19T03:50:38;98884.69;;;19.56;50.43
53116;BME280;39010;48.088;7.954;2022-07-19T03:53:06;98890.47;;;19.48;50.94
53116;BME280;39010;48.088;7.954;2022-07-19T03:55:33;98890.34;;;19.42;51.57
53116;BME280;39010;48.088;7.954;2022-07-19T03:57:59;98892.47;;;19.28;51.74
53116;BME280;39010;48.088;7.954;2022-07-19T04:00:26;98892.34;;;19.23;51.67
53116;BME280;39010;48.088;7.954;2022-07-19T04:02:52;98899.31;;;19.31;51.78
53116;BME280;39010;48.088;7.954;2022-07-19T04:05:19;98902.09;;;19.12;53.40
53116;BME280;39010;48.088;7.954;2022-07-19T04:07:46;98904.22;;;19.10;52.82
53116;BME280;39010;48.088;7.954;2022-07-19T04:10:12;98900.09;;;19.08;53.09
53116;BME280;39010;48.088;7.954;2022-07-19T04:12:39;98909.06;;;19.08;52.83
53116;BME280;39010;48.088;7.954;2022-07-19T04:15:06;98908.84;;;19.10;52.58
53116;BME280;39010;48.088;7.954;2022-07-19T04:17:33;98908.25;;;19.08;52.73
53116;BME280;39010;48.088;7.954;2022-07-19T04:19:59;98903.78;;;18.95;53.31
53116;BME280;39010;48.088;7.954;2022-07-19T04:22:26;98909.09;;;18.90;53.86
53116;BME280;39010;48.088;7.954;2022-07-19T04:24:53;98910.25;;;19.01;53.91
53116;BME280;39010;48.088;7.954;2022-07-19T04:27:19;98910.59;;;19.04;54.37
53116;BME280;39010;48.088;7.954;2022-07-19T04:29:46;98926.41;;;18.95;53.97
53116;BME280;39010;48.088;7.954;2022-07-19T04:32:12;98924.81;;;19.06;54.72
53116;BME280;39010;48.088;7.954;2022-07-19T04:34:46;98927.97;;;19.03;54.21
53116;BME280;39010;48.088;7.954;2022-07-19T04:37:12;98933.09;;;19.11;53.97
53116;BME280;39010;48.088;7.954;2022-07-19T04:39:39;98935.22;;;19.09;53.21
53116;BME280;39010;48.088;7.954;2022-07-19T04:42:05;98938.72;;;18.98;53.60
53116;BME280;39010;48.088;7.954;2022-07-19T04:44:32;98936.88;;;18.92;54.78
53116;BME280;39010;48.088;7.954;2022-07-19T04:46:59;98937.13;;;18.90;54.67
53116;BME280;39010;48.088;7.954;2022-07-19T04:49:25;98931.84;;;18.95;54.39
53116;BME280;39010;48.088;7.954;2022-07-19T04:51:52;98929.75;;;18.97;53.68
53116;BME280;39010;48.088;7.954;2022-07-19T04:54:19;98921.72;;;19.03;53.36
53116;BME280;39010;48.088;7.954;2022-07-19T04:56:45;98917.97;;;19.16;53.41
53116;BME280;39010;48.088;7.954;2022-07-19T04:59:12;98921.56;;;19.28;53.48
53116;BME280;39010;48.088;7.954;2022-07-19T05:01:38;98919.34;;;19.37;53.46
53116;BME280;39010;48.088;7.954;2022-07-19T05:04:05;98917.72;;;19.48;52.39
53116;BME280;39010;48.088;7.954;2022-07-19T05:06:32;98913.72;;;19.74;52.68
53116;BME280;39010;48.088;7.954;2022-07-19T05:08:58;98920.22;;;19.61;52.36
53116;BME280;39010;48.088;7.954;2022-07-19T05:11:25;98908.84;;;19.64;53.24
53116;BME280;39010;48.088;7.954;2022-07-19T05:13:51;98911.22;;;19.84;50.95
53116;BME280;39010;48.088;7.954;2022-07-19T05:16:18;98910.44;;;19.96;50.85
53116;BME280;39010;48.088;7.954;2022-07-19T05:18:45;98910.44;;;20.08;49.84
53116;BME280;39010;48.088;7.954;2022-07-19T05:21:11;98909.94;;;20.23;49.36
53116;BME280;39010;48.088;7.954;2022-07-19T05:23:39;98910.78;;;20.23;49.38
53116;BME280;39010;48.088;7.954;2022-07-19T05:26:06;98922.25;;;20.37;49.78
53116;BME280;39010;48.088;7.954;2022-07-19T05:28:33;98917.97;;;20.41;49.58
53116;BME280;39010;48.088;7.954;2022-07-19T05:31:02;98914.25;;;20.59;49.74
53116;BME280;39010;48.088;7.954;2022-07-19T05:33:29;98913.06;;;20.55;49.58
53116;BME280;39010;48.088;7.954;2022-07-19T05:35:56;98905.38;;;20.64;50.44
53116;BME280;39010;48.088;7.954;2022-07-19T05:38:23;98905.69;;;20.68;52.02
53116;BME280;39010;48.088;7.954;2022-07-19T05:40:49;98906.19;;;20.65;51.87
53116;BME280;39010;48.088;7.954;2022-07-19T05:43:16;98911.25;;;20.73;51.42
53116;BME280;39010;48.088;7.954;2022-07-19T05:45:43;98910.28;;;20.91;50.00
53116;BME280;39010;48.088;7.954;2022-07-19T05:48:10;98900.56;;;21.12;49.62
53116;BME280;39010;48.088;7.954;2022-07-19T05:50:37;98915.38;;;21.16;48.83
53116;BME280;39010;48.088;7.954;2022-07-19T05:53:04;98924.31;;;20.71;50.77
53116;BME280;39010;48.088;7.954;2022-07-19T05:55:30;98920.56;;;21.01;50.61
53116;BME280;39010;48.088;7.954;2022-07-19T05:57:57;98910.75;;;21.17;50.38
53116;BME280;39010;48.088;7.954;2022-07-19T06:00:24;98915.00;;;21.42;50.36
53116;BME280;39010;48.088;7.954;2022-07-19T06:02:51;98911.09;;;21.21;49.68
53116;BME280;39010;48.088;7.954;2022-07-19T06:05:17;98912.28;;;21.59;49.34
53116;BME280;39010;48.088;7.954;2022-07-19T06:07:44;98908.25;;;21.96;49.92
53116;BME280;39010;48.088;7.954;2022-07-19T06:10:10;98907.13;;;22.14;48.46
53116;BME280;39010;48.088;7.954;2022-07-19T06:12:37;98904.16;;;22.37;48.31
53116;BME280;39010;48.088;7.954;2022-07-19T06:15:16;98898.47;;;22.61;47.43
53116;BME280;39010;48.088;7.954;2022-07-19T06:17:48;98902.63;;;22.64;47.02
53116;BME280;39010;48.088;7.954;2022-07-19T06:20:15;98896.25;;;23.08;45.90
53116;BME280;39010;48.088;7.954;2022-07-19T06:22:41;98893.78;;;23.34;44.30
53116;BME280;39010;48.088;7.954;2022-07-19T06:25:08;98897.34;;;23.34;45.42
53116;BME280;39010;48.088;7.954;2022-07-19T06:27:35;98891.06;;;23.72;43.85
53116;BME280;39010;48.088;7.954;2022-07-19T06:30:01;98884.69;;;23.98;43.98
53116;BME280;39010;48.088;7.954;2022-07-19T06:32:28;98891.03;;;24.04;44.16
53116;BME280;39010;48.088;7.954;2022-07-19T06:34:55;98892.81;;;24.31;43.40
53116;BME280;39010;48.088;7.954;2022-07-19T06:37:22;98886.38;;;24.63;42.57
53116;BME280;39010;48.088;7.954;2022-07-19T06:39:48;98890.13;;;24.36;43.07
53116;BME280;39010;48.088;7.954;2022-07-19T06:42:14;98884.28;;;24.81;42.21
53116;BME280;39010;48.088;7.954;2022-07-19T06:44:43;98888.22;;;25.26;42.28
53116;BME280;39010;48.088;7.954;2022-07-19T06:47:10;98881.63;;;25.38;42.76
53116;BME280;39010;48.088;7.954;2022-07-19T06:49:36;98884.66;;;25.78;41.97
53116;BME280;39010;48.088;7.954;2022-07-19T06:52:03;98887.09;;;25.95;41.74
53116;BME280;39010;48.088;7.954;2022-07-19T06:54:29;98881.59;;;26.00;40.51
53116;BME280;39010;48.088;7.954;2022-07-19T06:56:56;98878.84;;;25.95;41.37
53116;BME280;39010;48.088;7.954;2022-07-19T06:59:22;98887.09;;;25.89;41.93
53116;BME280;39010;48.088;7.954;2022-07-19T07:01:49;98883.81;;;25.77;41.31
53116;BME280;39010;48.088;7.954;2022-07-19T07:04:16;98881.88;;;25.98;41.53
53116;BME280;39010;48.088;7.954;2022-07-19T07:06:53;98876.84;;;26.37;40.43
53116;BME280;39010;48.088;7.954;2022-07-19T07:09:19;98883.38;;;26.51;39.90
53116;BME280;39010;48.088;7.954;2022-07-19T07:11:46;98879.19;;;26.64;39.76
53116;BME280;39010;48.088;7.954;2022-07-19T07:14:12;98875.25;;;26.81;37.99
53116;BME280;39010;48.088;7.954;2022-07-19T07:16:39;98876.53;;;26.99;39.65
53116;BME280;39010;48.088;7.954;2022-07-19T07:19:06;98877.06;;;27.06;38.82
53116;BME280;39010;48.088;7.954;2022-07-19T07:21:32;98867.59;;;27.57;39.16
53116;BME280;39010;48.088;7.954;2022-07-19T07:24:02;98874.59;;;27.74;37.93
53116;BME280;39010;48.088;7.954;2022-07-19T07:26:31;98871.91;;;27.69;36.37
53116;BME280;39010;48.088;7.954;2022-07-19T07:28:58;98877.16;;;27.94;35.55
53116;BME280;39010;48.088;7.954;2022-07-19T07:31:24;98880.00;;;28.19;34.59
53116;BME280;39010;48.088;7.954;2022-07-19T07:33:51;98877.38;;;28.03;35.39
53116;BME280;39010;48.088;7.954;2022-07-19T07:36:18;98878.09;;;28.14;35.39
53116;BME280;39010;48.088;7.954;2022-07-19T07:38:44;98861.44;;;28.44;35.33
53116;BME280;39010;48.088;7.954;2022-07-19T07:41:11;98865.56;;;28.46;35.36
53116;BME280;39010;48.088;7.954;2022-07-19T07:43:57;98857.75;;;28.54;35.23
53116;BME280;39010;48.088;7.954;2022-07-19T07:46:23;98852.81;;;28.94;34.75
53116;BME280;39010;48.088;7.954;2022-07-19T07:48:50;98860.94;;;29.04;33.98
53116;BME280;39010;48.088;7.954;2022-07-19T07:51:22;98855.56;;;28.94;33.47
53116;BME280;39010;48.088;7.954;2022-07-19T07:54:08;98860.53;;;28.73;34.08
53116;BME280;39010;48.088;7.954;2022-07-19T07:56:35;98855.19;;;29.01;33.46
53116;BME280;39010;48.088;7.954;2022-07-19T07:59:02;98850.63;;;29.10;33.77
53116;BME280;39010;48.088;7.954;2022-07-19T08:01:28;98851.53;;;29.05;35.83
53116;BME280;39010;48.088;7.954;2022-07-19T08:03:57;98848.09;;;29.14;35.38
53116;BME280;39010;48.088;7.954;2022-07-19T08:06:23;98843.88;;;29.16;35.15
53116;BME280;39010;48.088;7.954;2022-07-19T08:08:50;98847.28;;;29.27;36.35
53116;BME280;39010;48.088;7.954;2022-07-19T08:11:16;98848.94;;;29.47;35.74
53116;BME280;39010;48.088;7.954;2022-07-19T08:13:43;98836.63;;;29.20;36.58
53116;BME280;39010;48.088;7.954;2022-07-19T08:16:10;98834.75;;;29.35;35.75
53116;BME280;39010;48.088;7.954;2022-07-19T08:18:36;98828.06;;;29.55;36.76
53116;BME280;39010;48.088;7.954;2022-07-19T08:21:04;98837.66;;;29.44;35.49
53116;BME280;39010;48.088;7.954;2022-07-19T08:23:30;98834.94;;;29.58;35.11
53116;BME280;39010;48.088;7.954;2022-07-19T08:25:57;98830.13;;;29.63;36.46
53116;BME280;39010;48.088;7.954;2022-07-19T08:28:23;98830.50;;;29.90;34.85
53116;BME280;39010;48.088;7.954;2022-07-19T08:30:50;98828.38;;;29.67;35.43
53116;BME280;39010;48.088;7.954;2022-07-19T08:33:37;98825.50;;;30.06;35.39
53116;BME280;39010;48.088;7.954;2022-07-19T08:36:03;98829.78;;;30.12;35.44
53116;BME280;39010;48.088;7.954;2022-07-19T08:38:32;98828.44;;;30.37;35.31
53116;BME280;39010;48.088;7.954;2022-07-19T08:41:01;98831.41;;;30.41;35.10
53116;BME280;39010;48.088;7.954;2022-07-19T08:43:28;98821.75;;;30.52;34.09
53116;BME280;39010;48.088;7.954;2022-07-19T08:45:59;98827.94;;;30.86;34.08
53116;BME280;39010;48.088;7.954;2022-07-19T08:48:27;98818.94;;;31.03;33.92
53116;BME280;39010;48.088;7.954;2022-07-19T08:51:03;98820.16;;;30.88;33.60
53116;BME280;39010;48.088;7.954;2022-07-19T08:53:32;98819.56;;;30.77;33.72
53116;BME280;39010;48.088;7.954;2022-07-19T08:55:59;98817.31;;;31.02;33.02
53116;BME280;39010;48.088;7.954;2022-07-19T08:58:26;98815.41;;;31.25;33.81
53116;BME280;39010;48.088;7.954;2022-07-19T09:00:53;98810.38;;;31.59;34.18
53116;BME280;39010;48.088;7.954;2022-07-19T09:03:20;98812.28;;;31.50;32.17
53116;BME280;39010;48.088;7.954;2022-07-19T09:05:46;98806.38;;;31.42;33.28
53116;BME280;39010;48.088;7.954;2022-07-19T09:08:15;98801.53;;;31.88;32.62
53116;BME280;39010;48.088;7.954;2022-07-19T09:10:45;98811.00;;;31.79;32.37
53116;BME280;39010;48.088;7.954;2022-07-19T09:13:32;98809.78;;;32.02;31.29
53116;BME280;39010;48.088;7.954;2022-07-19T09:15:59;98801.09;;;31.95;31.77
53116;BME280;39010;48.088;7.954;2022-07-19T09:18:31;98800.47;;;31.67;31.89
53116;BME280;39010;48.088;7.954;2022-07-19T09:21:01;98801.91;;;31.96;31.55
53116;BME280;39010;48.088;7.954;2022-07-19T09:23:29;98804.59;;;31.47;32.62
53116;BME280;39010;48.088;7.954;2022-07-19T09:26:01;98802.38;;;31.57;32.65
53116;BME280;39010;48.088;7.954;2022-07-19T09:28:29;98809.19;;;31.74;32.33
53116;BME280;39010;48.088;7.954;2022-07-19T09:30:58;98807.59;;;31.59;32.51
53116;BME280;39010;48.088;7.954;2022-07-19T09:33:28;98802.94;;;32.09;32.46
53116;BME280;39010;48.088;7.954;2022-07-19T09:35:57;98797.31;;;31.91;32.67
53116;BME280;39010;48.088;7.954;2022-07-19T09:40:53;98793.44;;;32.01;32.18
53116;BME280;39010;48.088;7.954;2022-07-19T09:43:20;98795.31;;;32.23;31.48
53116;BME280;39010;48.088;7.954;2022-07-19T09:46:30;98791.03;;;32.17;32.26
53116;BME280;39010;48.088;7.954;2022-07-19T09:49:07;98794.22;;;32.51;31.33
53116;BME280;39010;48.088;7.954;2022-07-19T09:51:42;98793.44;;;32.76;31.00
53116;BME280;39010;48.088;7.954;2022-07-19T09:54:10;98774.94;;;33.07;30.99
53116;BME280;39010;48.088;7.954;2022-07-19T09:56:39;98781.63;;;33.41;30.61
53116;BME280;39010;48.088;7.954;2022-07-19T09:59:07;98766.75;;;32.84;30.14
53116;BME280;39010;48.088;7.954;2022-07-19T10:01:34;98770.53;;;33.06;30.20
53116;BME280;39010;48.088;7.954;2022-07-19T10:04:06;98765.44;;;33.26;30.34
53116;BME280;39010;48.088;7.954;2022-07-19T10:06:33;98761.84;;;33.25;29.51
53116;BME280;39010;48.088;7.954;2022-07-19T10:09:05;98764.81;;;33.20;29.02
53116;BME280;39010;48.088;7.954;2022-07-19T10:11:33;98754.47;;;33.29;29.49
53116;BME280;39010;48.088;7.954;2022-07-19T10:14:00;98760.81;;;33.39;29.36
53116;BME280;39010;48.088;7.954;2022-07-19T10:19:12;98746.06;;;33.56;28.91
53116;BME280;39010;48.088;7.954;2022-07-19T10:21:42;98742.91;;;33.66;29.14
53116;BME280;39010;48.088;7.954;2022-07-19T10:24:11;98742.53;;;33.76;29.11
53116;BME280;39010;48.088;7.954;2022-07-19T10:26:39;98742.94;;;33.87;28.67
53116;BME280;39010;48.088;7.954;2022-07-19T10:31:38;98737.56;;;34.21;26.92
53116;BME280;39010;48.088;7.954;2022-07-19T10:34:07;98734.56;;;34.26;27.45
53116;BME280;39010;48.088;7.954;2022-07-19T10:42:05;98734.25;;;33.98;27.39
53116;BME280;39010;48.088;7.954;2022-07-19T10:44:32;98731.22;;;33.73;28.36
53116;BME280;39010;48.088;7.954;2022-07-19T10:46:59;98735.94;;;33.81;28.58
53116;BME280;39010;48.088;7.954;2022-07-19T10:49:59;98724.44;;;33.91;28.05
53116;BME280;39010;48.088;7.954;2022-07-19T11:00:47;98719.50;;;34.27;27.88
53116;BME280;39010;48.088;7.954;2022-07-19T11:05:49;98713.72;;;34.54;27.78
53116;BME280;39010;48.088;7.954;2022-07-19T11:08:17;98720.09;;;34.12;27.51
53116;BME280;39010;48.088;7.954;2022-07-19T11:10:43;98710.50;;;34.21;27.84
53116;BME280;39010;48.088;7.954;2022-07-19T11:13:15;98710.13;;;34.53;28.30
53116;BME280;39010;48.088;7.954;2022-07-19T11:15:54;98704.69;;;34.35;27.74
53116;BME280;39010;48.088;7.954;2022-07-19T11:18:20;98702.94;;;34.01;28.34
53116;BME280;39010;48.088;7.954;2022-07-19T11:20:47;98705.97;;;34.38;27.67
53116;BME280;39010;48.088;7.954;2022-07-19T11:23:17;98698.47;;;34.72;26.91
53116;BME280;39010;48.088;7.954;2022-07-19T11:25:44;98690.19;;;34.42;26.85
53116;BME280;39010;48.088;7.954;2022-07-19T11:28:23;98689.38;;;34.96;25.42
53116;BME280;39010;48.088;7.954;2022-07-19T11:30:50;98694.78;;;34.80;24.20
53116;BME280;39010;48.088;7.954;2022-07-19T11:33:19;98686.84;;;35.04;23.63
53116;BME280;39010;48.088;7.954;2022-07-19T11:35:57;98696.00;;;34.92;23.67
53116;BME280;39010;48.088;7.954;2022-07-19T11:41:01;98677.88;;;35.69;22.90
53116;BME280;39010;48.088;7.954;2022-07-19T11:43:29;98675.88;;;35.94;22.37
53116;BME280;39010;48.088;7.954;2022-07-19T11:45:55;98682.19;;;36.32;22.75
53116;BME280;39010;48.088;7.954;2022-07-19T11:48:29;98681.38;;;36.03;22.26
53116;BME280;39010;48.088;7.954;2022-07-19T11:51:07;98676.00;;;36.10;21.50
53116;BME280;39010;48.088;7.954;2022-07-19T11:53:37;98669.34;;;36.15;22.21
53116;BME280;39010;48.088;7.954;2022-07-19T11:56:05;98678.88;;;36.55;22.32
53116;BME280;39010;48.088;7.954;2022-07-19T11:58:32;98672.88;;;36.97;21.53
53116;BME280;39010;48.088;7.954;2022-07-19T12:01:00;98667.91;;;37.23;20.80
53116;BME280;39010;48.088;7.954;2022-07-19T12:03:27;98667.38;;;36.73;20.89
53116;BME280;39010;48.088;7.954;2022-07-19T12:06:05;98658.28;;;36.76;21.50
53116;BME280;39010;48.088;7.954;2022-07-19T12:08:42;98656.47;;;37.12;21.50
53116;BME280;39010;48.088;7.954;2022-07-19T12:11:24;98648.97;;;37.32;21.80
53116;BME280;39010;48.088;7.954;2022-07-19T12:13:52;98652.94;;;37.31;20.57
53116;BME280;39010;48.088;7.954;2022-07-19T12:16:19;98651.13;;;37.07;21.12
53116;BME280;39010;48.088;7.954;2022-07-19T12:18:56;98638.03;;;36.50;21.33
53116;BME280;39010;48.088;7.954;2022-07-19T12:26:41;98643.00;;;35.50;23.11
53116;BME280;39010;48.088;7.954;2022-07-19T12:31:59;98637.88;;;35.65;22.30
53116;BME280;39010;48.088;7.954;2022-07-19T12:34:26;98637.88;;;35.65;23.40
53116;BME280;39010;48.088;7.954;2022-07-19T12:36:53;98625.75;;;35.73;23.40
53116;BME280;39010;48.088;7.954;2022-07-19T12:39:28;98636.72;;;35.53;22.47
53116;BME280;39010;48.088;7.954;2022-07-19T12:42:04;98620.97;;;35.74;22.59
53116;BME280;39010;48.088;7.954;2022-07-19T12:44:32;98629.28;;;35.58;22.70
53116;BME280;39010;48.088;7.954;2022-07-19T12:47:00;98625.56;;;35.53;21.87
53116;BME280;39010;48.088;7.954;2022-07-19T12:49:47;98617.69;;;35.84;21.79
53116;BME280;39010;48.088;7.954;2022-07-19T12:52:18;98616.75;;;36.33;22.54
53116;BME280;39010;48.088;7.954;2022-07-19T12:54:45;98615.28;;;36.96;21.00
53116;BME280;39010;48.088;7.954;2022-07-19T12:57:11;98622.53;;;37.29;21.15
53116;BME280;39010;48.088;7.954;2022-07-19T12:59:39;98624.44;;;37.09;21.16
53116;BME280;39010;48.088;7.954;2022-07-19T13:02:07;98610.91;;;36.38;21.31
53116;BME280;39010;48.088;7.954;2022-07-19T13:04:35;98608.81;;;36.07;21.65
53116;BME280;39010;48.088;7.954;2022-07-19T13:07:02;98611.84;;;36.14;21.70
53116;BME280;39010;48.088;7.954;2022-07-19T13:09:29;98604.66;;;36.29;21.50
53116;BME280;39010;48.088;7.954;2022-07-19T13:11:55;98591.16;;;36.60;22.11
53116;BME280;39010;48.088;7.954;2022-07-19T13:14:24;98604.06;;;36.07;20.82
53116;BME280;39010;48.088;7.954;2022-07-19T13:16:51;98591.06;;;36.27;21.06
53116;BME280;39010;48.088;7.954;2022-07-19T13:19:17;98599.59;;;35.65;21.87
53116;BME280;39010;48.088;7.954;2022-07-19T13:21:44;98596.91;;;35.81;21.62
53116;BME280;39010;48.088;7.954;2022-07-19T13:24:11;98593.41;;;35.85;21.89
53116;BME280;39010;48.088;7.954;2022-07-19T13:26:58;98593.63;;;35.92;21.50
53116;BME280;39010;48.088;7.954;2022-07-19T13:29:24;98593.72;;;35.83;22.37
53116;BME280;39010;48.088;7.954;2022-07-19T13:31:59;98588.97;;;35.83;22.12
53116;BME280;39010;48.088;7.954;2022-07-19T13:34:28;98583.69;;;35.94;21.49
53116;BME280;39010;48.088;7.954;2022-07-19T13:36:54;98579.06;;;35.86;21.28
53116;BME280;39010;48.088;7.954;2022-07-19T13:39:21;98581.22;;;35.64;21.53
53116;BME280;39010;48.088;7.954;2022-07-19T13:41:48;98580.63;;;35.71;21.93
53116;BME280;39010;48.088;7.954;2022-07-19T13:44:17;98571.59;;;36.03;21.79
53116;BME280;39010;48.088;7.954;2022-07-19T13:46:44;98570.56;;;35.95;21.52
53116;BME280;39010;48.088;7.954;2022-07-19T13:49:10;98570.63;;;36.39;21.29
53116;BME280;39010;48.088;7.954;2022-07-19T13:51:38;98557.25;;;36.17;20.96
53116;BME280;39010;48.088;7.954;2022-07-19T13:54:05;98554.03;;;36.31;21.59